EZY53LT EGGD-LIRP
Flight info
| Callsign | EZY53LT |
|---|---|
| Flight time | N/A |
| Altitude | 37000 |
| Route | YORQI1Z YORQI L607 ALHAD DCT MID UL612 OGULO DCT OKASI DCT OKEKO DCT MOU DCT MADIV DCT MOKIP DCT TUFTA DCT GEVEA DCT MOBLO DCT LURAG DCT OBUXA DCT ASTIG DCT OLETI DCT TIDKA L50 KONER KONER1D |
| Aircraft | A320/M-SDE2E3FGHIJ1RWXYZ/LB1 |
Departure
| Time | N/A |
|---|---|
| Airport | Bristol Airport (EGGD) |
Arrival
| Time | 2026-05-06 09:10 |
|---|---|
| Airport | Pisa International Airport (LIRP) |
| Time | Latitude | Longitude | Altitude | Speed | Heading |
|---|---|---|---|---|---|
| 2026-05-06 08:17 | 46.42593 | 5.21817 | 36872 ft | 444 kts | 109° |
| 2026-05-06 08:17 | 46.41794 | 5.26136 | 36856 ft | 444 kts | 109° |
| 2026-05-06 08:18 | 46.40183 | 5.34785 | 36878 ft | 445 kts | 110° |
| 2026-05-06 08:18 | 46.38576 | 5.43437 | 36861 ft | 445 kts | 109° |
| 2026-05-06 08:19 | 46.36967 | 5.52093 | 36872 ft | 445 kts | 109° |
| 2026-05-06 08:19 | 46.35354 | 5.60756 | 36877 ft | 446 kts | 110° |
| 2026-05-06 08:20 | 46.33797 | 5.69063 | 36864 ft | 446 kts | 110° |
| 2026-05-06 08:20 | 46.32161 | 5.77725 | 36885 ft | 447 kts | 110° |
| 2026-05-06 08:21 | 46.30514 | 5.86394 | 36897 ft | 447 kts | 110° |
| 2026-05-06 08:21 | 46.28871 | 5.95059 | 36909 ft | 447 kts | 110° |
| 2026-05-06 08:22 | 46.27221 | 6.03722 | 36898 ft | 447 kts | 110° |
| 2026-05-06 08:22 | 46.25035 | 6.12022 | 36915 ft | 437 kts | 126° |
| 2026-05-06 08:23 | 46.21293 | 6.18721 | 36909 ft | 424 kts | 142° |
| 2026-05-06 08:23 | 46.16955 | 6.24510 | 36901 ft | 425 kts | 142° |
| 2026-05-06 08:24 | 46.12623 | 6.30314 | 36895 ft | 425 kts | 142° |
| 2026-05-06 08:24 | 46.08288 | 6.36108 | 36861 ft | 425 kts | 142° |
| 2026-05-06 08:25 | 46.03937 | 6.41897 | 36873 ft | 426 kts | 142° |
| 2026-05-06 08:25 | 45.99577 | 6.47682 | 36873 ft | 426 kts | 142° |
| 2026-05-06 08:26 | 45.95247 | 6.53418 | 36865 ft | 426 kts | 142° |
| 2026-05-06 08:26 | 45.90887 | 6.59194 | 36863 ft | 426 kts | 142° |
| 2026-05-06 08:27 | 45.86522 | 6.64955 | 36870 ft | 426 kts | 142° |
| 2026-05-06 08:27 | 45.82148 | 6.70710 | 36857 ft | 427 kts | 142° |
| 2026-05-06 08:28 | 45.77767 | 6.76460 | 36870 ft | 427 kts | 143° |
| 2026-05-06 08:28 | 45.73369 | 6.82198 | 36875 ft | 428 kts | 143° |
| 2026-05-06 08:29 | 45.68967 | 6.87925 | 36879 ft | 428 kts | 143° |
| 2026-05-06 08:29 | 45.64557 | 6.93645 | 36899 ft | 428 kts | 143° |
| 2026-05-06 08:30 | 45.60138 | 6.99369 | 36910 ft | 429 kts | 143° |
| 2026-05-06 08:30 | 45.55720 | 7.05075 | 36900 ft | 428 kts | 143° |
| 2026-05-06 08:31 | 45.51688 | 7.11389 | 36903 ft | 438 kts | 128° |
| 2026-05-06 08:31 | 45.48457 | 7.18797 | 36912 ft | 440 kts | 127° |
| 2026-05-06 08:32 | 45.45213 | 7.26201 | 36920 ft | 440 kts | 128° |
| 2026-05-06 08:32 | 45.41960 | 7.33581 | 36936 ft | 441 kts | 128° |
| 2026-05-06 08:33 | 45.38649 | 7.40902 | 36935 ft | 438 kts | 130° |
| 2026-05-06 08:33 | 45.35139 | 7.47966 | 36934 ft | 437 kts | 131° |
| 2026-05-06 08:34 | 45.29787 | 7.58476 | 36978 ft | 439 kts | 131° |
| 2026-05-06 08:35 | 45.26250 | 7.65541 | 36984 ft | 439 kts | 131° |
| 2026-05-06 08:35 | 45.22718 | 7.72631 | 36969 ft | 440 kts | 131° |
| 2026-05-06 08:36 | 45.19174 | 7.79712 | 36981 ft | 441 kts | 131° |
| 2026-05-06 08:36 | 45.15637 | 7.86742 | 36988 ft | 441 kts | 131° |
| 2026-05-06 08:37 | 45.12071 | 7.93817 | 36976 ft | 441 kts | 131° |
| 2026-05-06 08:37 | 45.08499 | 8.00882 | 36961 ft | 442 kts | 131° |
| 2026-05-06 08:38 | 45.04918 | 8.07954 | 36945 ft | 442 kts | 131° |
| 2026-05-06 08:38 | 45.01328 | 8.15012 | 36960 ft | 443 kts | 131° |
| 2026-05-06 08:39 | 44.97721 | 8.22088 | 36968 ft | 443 kts | 131° |
| 2026-05-06 08:39 | 44.93657 | 8.28465 | 36976 ft | 431 kts | 148° |
| 2026-05-06 08:40 | 44.88580 | 8.32664 | 36960 ft | 420 kts | 161° |
| 2026-05-06 08:40 | 44.83254 | 8.36095 | 36960 ft | 422 kts | 161° |
| 2026-05-06 08:41 | 44.77913 | 8.39540 | 36953 ft | 423 kts | 161° |
| 2026-05-06 08:41 | 44.72558 | 8.42983 | 36959 ft | 424 kts | 161° |
| 2026-05-06 08:42 | 44.67190 | 8.46434 | 36952 ft | 425 kts | 161° |
| 2026-05-06 08:42 | 44.61809 | 8.49892 | 36956 ft | 426 kts | 161° |
| 2026-05-06 08:43 | 44.56417 | 8.53343 | 36968 ft | 426 kts | 161° |
| 2026-05-06 08:43 | 44.51017 | 8.56784 | 36907 ft | 427 kts | 161° |
| 2026-05-06 08:44 | 44.45611 | 8.60227 | 36899 ft | 427 kts | 161° |
| 2026-05-06 08:44 | 44.40203 | 8.63658 | 36887 ft | 427 kts | 162° |
| 2026-05-06 08:45 | 44.34797 | 8.67079 | 36883 ft | 427 kts | 162° |
| 2026-05-06 08:45 | 44.29384 | 8.70513 | 36970 ft | 427 kts | 162° |
| 2026-05-06 08:46 | 44.23967 | 8.73935 | 36939 ft | 428 kts | 162° |
| 2026-05-06 08:46 | 44.18574 | 8.77332 | 36940 ft | 428 kts | 162° |
| 2026-05-06 08:47 | 44.13140 | 8.80761 | 36936 ft | 429 kts | 162° |
| 2026-05-06 08:47 | 44.07696 | 8.84185 | 36925 ft | 429 kts | 162° |
| 2026-05-06 08:48 | 44.02243 | 8.87596 | 36940 ft | 430 kts | 162° |
| 2026-05-06 08:48 | 43.96782 | 8.91002 | 36947 ft | 430 kts | 162° |
| 2026-05-06 08:49 | 43.91313 | 8.94404 | 36783 ft | 432 kts | 162° |
| 2026-05-06 08:49 | 43.88580 | 8.96129 | 36526 ft | 433 kts | 159° |
| 2026-05-06 08:49 | 43.86007 | 8.98376 | 36246 ft | 444 kts | 147° |
| 2026-05-06 08:49 | 43.83761 | 9.01382 | 35989 ft | 455 kts | 135° |
| 2026-05-06 08:50 | 43.81971 | 9.05052 | 35723 ft | 465 kts | 122° |
| 2026-05-06 08:50 | 43.80745 | 9.09224 | 35090 ft | 473 kts | 108° |
| 2026-05-06 08:50 | 43.80001 | 9.13668 | 34482 ft | 473 kts | 110° |
| 2026-05-06 08:50 | 43.78821 | 9.17857 | 33916 ft | 463 kts | 123° |
| 2026-05-06 08:51 | 43.77094 | 9.21555 | 33331 ft | 452 kts | 134° |
| 2026-05-06 08:51 | 43.75015 | 9.24741 | 32820 ft | 441 kts | 143° |
| 2026-05-06 08:51 | 43.72720 | 9.27487 | 32329 ft | 434 kts | 147° |
| 2026-05-06 08:51 | 43.70441 | 9.30115 | 31809 ft | 431 kts | 146° |
| 2026-05-06 08:52 | 43.68154 | 9.32766 | 31316 ft | 428 kts | 146° |
| 2026-05-06 08:52 | 43.65881 | 9.35403 | 30809 ft | 425 kts | 146° |
| 2026-05-06 08:52 | 43.63627 | 9.38007 | 30328 ft | 421 kts | 146° |
| 2026-05-06 08:52 | 43.61382 | 9.40586 | 29842 ft | 418 kts | 146° |
| 2026-05-06 08:53 | 43.59158 | 9.43129 | 29366 ft | 413 kts | 146° |
| 2026-05-06 08:53 | 43.56957 | 9.45634 | 28912 ft | 408 kts | 146° |
| 2026-05-06 08:53 | 43.54955 | 9.48398 | 28442 ft | 412 kts | 130° |
| 2026-05-06 08:53 | 43.53720 | 9.51970 | 27959 ft | 419 kts | 107° |
| 2026-05-06 08:54 | 43.53525 | 9.55978 | 27452 ft | 423 kts | 83° |
| 2026-05-06 08:54 | 43.54424 | 9.59791 | 26934 ft | 422 kts | 59° |
| 2026-05-06 08:54 | 43.56129 | 9.63084 | 26397 ft | 419 kts | 51° |
| 2026-05-06 08:54 | 43.57916 | 9.66245 | 25851 ft | 418 kts | 51° |
| 2026-05-06 08:55 | 43.59706 | 9.69401 | 25302 ft | 418 kts | 51° |
| 2026-05-06 08:55 | 43.61362 | 9.72326 | 24778 ft | 418 kts | 51° |
| 2026-05-06 08:55 | 43.63145 | 9.75485 | 24253 ft | 417 kts | 52° |
| 2026-05-06 08:55 | 43.64920 | 9.78643 | 23742 ft | 415 kts | 52° |
| 2026-05-06 08:56 | 43.66681 | 9.81788 | 23218 ft | 413 kts | 52° |
| 2026-05-06 08:56 | 43.68386 | 9.84956 | 22689 ft | 409 kts | 59° |
| 2026-05-06 08:56 | 43.69566 | 9.88498 | 22161 ft | 404 kts | 76° |
| 2026-05-06 08:56 | 43.69977 | 9.92291 | 21664 ft | 396 kts | 95° |
| 2026-05-06 08:57 | 43.69605 | 9.95725 | 21508 ft | 378 kts | 111° |
| 2026-05-06 08:57 | 43.68566 | 9.98955 | 21291 ft | 361 kts | 127° |
| 2026-05-06 08:57 | 43.67121 | 10.01746 | 20911 ft | 355 kts | 131° |
| 2026-05-06 08:57 | 43.65654 | 10.04472 | 20498 ft | 352 kts | 132° |
| 2026-05-06 08:58 | 43.64178 | 10.07194 | 19728 ft | 360 kts | 132° |
| 2026-05-06 08:58 | 43.62639 | 10.10012 | 18766 ft | 375 kts | 132° |
| 2026-05-06 08:58 | 43.61041 | 10.12940 | 17686 ft | 389 kts | 131° |
| 2026-05-06 08:58 | 43.59390 | 10.15975 | 16512 ft | 402 kts | 131° |
| 2026-05-06 08:59 | 43.57685 | 10.19115 | 15328 ft | 415 kts | 130° |
| 2026-05-06 08:59 | 43.55943 | 10.22331 | 14351 ft | 421 kts | 130° |
| 2026-05-06 08:59 | 43.54197 | 10.25565 | 13706 ft | 418 kts | 130° |
| 2026-05-06 08:59 | 43.52496 | 10.28721 | 13436 ft | 403 kts | 130° |
| 2026-05-06 09:00 | 43.50982 | 10.31580 | 13188 ft | 392 kts | 127° |
| 2026-05-06 09:00 | 43.49954 | 10.35012 | 12929 ft | 389 kts | 102° |
| 2026-05-06 09:00 | 43.50041 | 10.38684 | 12665 ft | 383 kts | 76° |
| 2026-05-06 09:00 | 43.51211 | 10.41905 | 12408 ft | 374 kts | 49° |
| 2026-05-06 09:01 | 43.53030 | 10.43993 | 12179 ft | 363 kts | 28° |
| 2026-05-06 09:01 | 43.55254 | 10.45514 | 11936 ft | 352 kts | 22° |
| 2026-05-06 09:01 | 43.57452 | 10.46935 | 11683 ft | 345 kts | 22° |
| 2026-05-06 09:01 | 43.59605 | 10.48328 | 11364 ft | 339 kts | 22° |
| 2026-05-06 09:02 | 43.61706 | 10.49730 | 11109 ft | 333 kts | 27° |
| 2026-05-06 09:02 | 43.63636 | 10.51379 | 10857 ft | 329 kts | 33° |
| 2026-05-06 09:02 | 43.65479 | 10.53247 | 10473 ft | 329 kts | 36° |
| 2026-05-06 09:02 | 43.67276 | 10.55210 | 10027 ft | 331 kts | 37° |
| 2026-05-06 09:03 | 43.69075 | 10.57205 | 9552 ft | 332 kts | 37° |
| 2026-05-06 09:03 | 43.70885 | 10.59186 | 9089 ft | 331 kts | 36° |
| 2026-05-06 09:03 | 43.72700 | 10.61133 | 8640 ft | 330 kts | 36° |
| 2026-05-06 09:03 | 43.74523 | 10.63054 | 8202 ft | 330 kts | 35° |
| 2026-05-06 09:04 | 43.76362 | 10.64967 | 7741 ft | 330 kts | 35° |
| 2026-05-06 09:04 | 43.78335 | 10.66516 | 7300 ft | 324 kts | 13° |
| 2026-05-06 09:04 | 43.80517 | 10.66645 | 6863 ft | 311 kts | 342° |
| 2026-05-06 09:04 | 43.82384 | 10.65335 | 6428 ft | 297 kts | 316° |
| 2026-05-06 09:05 | 43.83857 | 10.63382 | 6021 ft | 290 kts | 307° |
| 2026-05-06 09:05 | 43.85146 | 10.61259 | 5603 ft | 286 kts | 304° |
| 2026-05-06 09:05 | 43.86357 | 10.59100 | 5181 ft | 281 kts | 298° |
| 2026-05-06 09:05 | 43.86915 | 10.56652 | 4801 ft | 267 kts | 266° |
| 2026-05-06 09:06 | 43.86382 | 10.54275 | 4425 ft | 258 kts | 236° |
| 2026-05-06 09:06 | 43.85324 | 10.52294 | 4061 ft | 254 kts | 231° |
| 2026-05-06 09:06 | 43.84194 | 10.50442 | 3698 ft | 250 kts | 225° |
| 2026-05-06 09:06 | 43.82750 | 10.49240 | 3569 ft | 237 kts | 203° |
| 2026-05-06 09:07 | 43.81281 | 10.48404 | 3562 ft | 219 kts | 205° |
| 2026-05-06 09:07 | 43.79931 | 10.47574 | 3571 ft | 208 kts | 206° |
| 2026-05-06 09:07 | 43.78621 | 10.46743 | 3467 ft | 206 kts | 206° |
| 2026-05-06 09:07 | 43.77324 | 10.45920 | 3319 ft | 201 kts | 206° |
| 2026-05-06 09:08 | 43.76080 | 10.45181 | 3162 ft | 190 kts | 202° |
| 2026-05-06 09:08 | 43.75262 | 10.44819 | 2975 ft | 184 kts | 197° |
| 2026-05-06 09:08 | 43.73990 | 10.44484 | 2235 ft | 189 kts | 189° |
| 2026-05-06 09:08 | 43.72745 | 10.44000 | 1620 ft | 182 kts | 211° |
| 2026-05-06 09:09 | 43.71808 | 10.42916 | 885 ft | 177 kts | 220° |
| 2026-05-06 09:09 | 43.70859 | 10.41889 | 474 ft | 167 kts | 210° |
| 2026-05-06 09:09 | 43.69955 | 10.41045 | 236 ft | 148 kts | 213° |
| 2026-05-06 09:09 | 43.69169 | 10.40223 | 59 ft | 131 kts | 213° |
| 2026-05-06 09:10 | 43.68482 | 10.39526 | 17 ft | 113 kts | 209° |
| 2026-05-06 09:10 | 43.68032 | 10.39077 | 7 ft | 53 kts | 217° |
| 2026-05-06 09:10 | 43.67731 | 10.38757 | 9 ft | 54 kts | 216° |
| 2026-05-06 09:10 | 43.67552 | 10.38523 | 9 ft | 23 kts | 275° |
| 2026-05-06 09:11 | 43.67589 | 10.38426 | 10 ft | 1 kts | 311° |
| 2026-05-06 09:11 | 43.67679 | 10.38263 | 10 ft | 35 kts | 306° |
| 2026-05-06 09:11 | 43.67715 | 10.38197 | 11 ft | 0 kts | 306° |
| 2026-05-06 09:11 | 43.67716 | 10.38195 | 11 ft | 2 kts | 306° |
| 2026-05-06 09:12 | 43.67740 | 10.38195 | 11 ft | 4 kts | 25° |
| 2026-05-06 09:12 | 43.67758 | 10.38206 | 11 ft | 2 kts | 26° |
| 2026-05-06 09:12 | 43.67768 | 10.38213 | 11 ft | 1 kts | 26° |
| 2026-05-06 09:12 | 43.67771 | 10.38215 | 11 ft | 0 kts | 26° |